Terminal Aerodrome Forecast
Issued by NWS Bismarck, ND

Home | Current Version | Previous Version | Text Only | Print | Product List | Glossary Off
Versions: 1 2 3 4 5 6 7 8 9 10 11 12 13 14 15 16 17 18 19 20 21 22 23 24 25 26 27 28 29 30

372
FTUS43 KBIS 010525
TAFBIS
TAF
KBIS 010525Z 0106/0206 32008KT P6SM OVC008
     FM011200 34004KT P6SM SCT005 OVC007
     FM012300 03003KT P6SM OVC009=

USA.gov is the U.S. government's official web portal to all federal, state and local government web resources and services.